sensor_id;sensor_type;location;lat;lon;timestamp;P1;durP1;ratioP1;P2;durP2;ratioP2
32523;SDS011;18965;52.242;20.886;2022-10-04T00:01:30;21.20;;;5.38;;
32523;SDS011;18965;52.242;20.886;2022-10-04T00:07:05;7.85;;;3.58;;
32523;SDS011;18965;52.242;20.886;2022-10-04T00:09:42;8.52;;;3.50;;
32523;SDS011;18965;52.242;20.886;2022-10-04T00:14:50;6.43;;;3.25;;
32523;SDS011;18965;52.242;20.886;2022-10-04T00:17:21;10.32;;;3.70;;
32523;SDS011;18965;52.242;20.886;2022-10-04T00:19:51;11.18;;;3.78;;
32523;SDS011;18965;52.242;20.886;2022-10-04T00:22:30;10.60;;;3.55;;
32523;SDS011;18965;52.242;20.886;2022-10-04T00:25:02;15.13;;;4.05;;
32523;SDS011;18965;52.242;20.886;2022-10-04T00:30:41;6.88;;;3.03;;
32523;SDS011;18965;52.242;20.886;2022-10-04T00:33:07;6.70;;;3.13;;
32523;SDS011;18965;52.242;20.886;2022-10-04T00:40:34;8.23;;;3.10;;
32523;SDS011;18965;52.242;20.886;2022-10-04T00:43:21;12.60;;;3.30;;
32523;SDS011;18965;52.242;20.886;2022-10-04T00:46:05;12.38;;;3.80;;
32523;SDS011;18965;52.242;20.886;2022-10-04T00:48:45;10.52;;;3.50;;
32523;SDS011;18965;52.242;20.886;2022-10-04T00:51:26;13.73;;;3.75;;
32523;SDS011;18965;52.242;20.886;2022-10-04T00:54:18;11.63;;;3.60;;
32523;SDS011;18965;52.242;20.886;2022-10-04T00:56:53;12.73;;;3.80;;
32523;SDS011;18965;52.242;20.886;2022-10-04T00:59:36;11.27;;;3.13;;
32523;SDS011;18965;52.242;20.886;2022-10-04T01:02:07;7.60;;;2.92;;
32523;SDS011;18965;52.242;20.886;2022-10-04T01:04:42;7.45;;;3.05;;
32523;SDS011;18965;52.242;20.886;2022-10-04T01:07:32;15.25;;;3.65;;
32523;SDS011;18965;52.242;20.886;2022-10-04T01:10:10;7.55;;;3.38;;
32523;SDS011;18965;52.242;20.886;2022-10-04T01:15:32;9.63;;;2.90;;
32523;SDS011;18965;52.242;20.886;2022-10-04T01:20:49;8.05;;;2.70;;
32523;SDS011;18965;52.242;20.886;2022-10-04T01:25:58;12.82;;;3.17;;
32523;SDS011;18965;52.242;20.886;2022-10-04T01:28:25;11.77;;;3.42;;
32523;SDS011;18965;52.242;20.886;2022-10-04T01:30:51;9.10;;;3.00;;
32523;SDS011;18965;52.242;20.886;2022-10-04T01:33:17;11.38;;;3.28;;
32523;SDS011;18965;52.242;20.886;2022-10-04T01:35:43;6.18;;;2.42;;
32523;SDS011;18965;52.242;20.886;2022-10-04T01:38:10;12.75;;;3.08;;
32523;SDS011;18965;52.242;20.886;2022-10-04T01:40:40;8.30;;;2.83;;
32523;SDS011;18965;52.242;20.886;2022-10-04T01:43:13;8.23;;;2.63;;
32523;SDS011;18965;52.242;20.886;2022-10-04T01:45:46;7.70;;;2.67;;
32523;SDS011;18965;52.242;20.886;2022-10-04T01:48:21;9.18;;;2.65;;
32523;SDS011;18965;52.242;20.886;2022-10-04T01:50:56;9.25;;;2.63;;
32523;SDS011;18965;52.242;20.886;2022-10-04T01:56:07;10.85;;;2.92;;
32523;SDS011;18965;52.242;20.886;2022-10-04T01:58:46;8.13;;;2.72;;
32523;SDS011;18965;52.242;20.886;2022-10-04T02:01:25;9.00;;;2.80;;
32523;SDS011;18965;52.242;20.886;2022-10-04T02:06:26;30.65;;;5.32;;
32523;SDS011;18965;52.242;20.886;2022-10-04T02:08:54;12.23;;;2.95;;
32523;SDS011;18965;52.242;20.886;2022-10-04T02:11:21;13.52;;;3.00;;
32523;SDS011;18965;52.242;20.886;2022-10-04T02:13:49;14.07;;;3.25;;
32523;SDS011;18965;52.242;20.886;2022-10-04T02:16:17;14.15;;;3.25;;
32523;SDS011;18965;52.242;20.886;2022-10-04T02:18:45;8.55;;;2.83;;
32523;SDS011;18965;52.242;20.886;2022-10-04T02:21:11;9.90;;;2.97;;
32523;SDS011;18965;52.242;20.886;2022-10-04T02:23:40;9.52;;;2.90;;
32523;SDS011;18965;52.242;20.886;2022-10-04T02:26:07;5.88;;;2.40;;
32523;SDS011;18965;52.242;20.886;2022-10-04T02:28:34;7.10;;;2.40;;
32523;SDS011;18965;52.242;20.886;2022-10-04T02:31:01;7.88;;;2.35;;
32523;SDS011;18965;52.242;20.886;2022-10-04T02:33:47;12.75;;;3.05;;
32523;SDS011;18965;52.242;20.886;2022-10-04T02:36:15;5.40;;;2.22;;
32523;SDS011;18965;52.242;20.886;2022-10-04T02:39:02;10.15;;;2.38;;
32523;SDS011;18965;52.242;20.886;2022-10-04T02:41:37;5.15;;;1.92;;
32523;SDS011;18965;52.242;20.886;2022-10-04T02:44:10;7.78;;;2.38;;
32523;SDS011;18965;52.242;20.886;2022-10-04T02:46:51;8.38;;;2.20;;
32523;SDS011;18965;52.242;20.886;2022-10-04T02:49:33;4.60;;;1.80;;
32523;SDS011;18965;52.242;20.886;2022-10-04T02:54:50;9.68;;;2.30;;
32523;SDS011;18965;52.242;20.886;2022-10-04T02:57:34;7.18;;;2.30;;
32523;SDS011;18965;52.242;20.886;2022-10-04T03:00:06;6.00;;;2.15;;
32523;SDS011;18965;52.242;20.886;2022-10-04T03:02:34;6.95;;;2.20;;
32523;SDS011;18965;52.242;20.886;2022-10-04T03:05:03;14.15;;;2.53;;
32523;SDS011;18965;52.242;20.886;2022-10-04T03:07:35;6.32;;;1.90;;
32523;SDS011;18965;52.242;20.886;2022-10-04T03:10:05;7.97;;;1.95;;
32523;SDS011;18965;52.242;20.886;2022-10-04T03:12:33;8.32;;;2.25;;
32523;SDS011;18965;52.242;20.886;2022-10-04T03:15:01;6.63;;;1.92;;
32523;SDS011;18965;52.242;20.886;2022-10-04T03:17:26;9.43;;;2.25;;
32523;SDS011;18965;52.242;20.886;2022-10-04T03:19:53;6.88;;;2.15;;
32523;SDS011;18965;52.242;20.886;2022-10-04T03:22:21;7.07;;;2.40;;
32523;SDS011;18965;52.242;20.886;2022-10-04T03:24:51;9.73;;;2.22;;
32523;SDS011;18965;52.242;20.886;2022-10-04T03:27:30;10.07;;;2.63;;
32523;SDS011;18965;52.242;20.886;2022-10-04T03:29:58;10.93;;;2.85;;
32523;SDS011;18965;52.242;20.886;2022-10-04T03:32:26;8.45;;;2.72;;
32523;SDS011;18965;52.242;20.886;2022-10-04T03:34:55;8.45;;;2.50;;
32523;SDS011;18965;52.242;20.886;2022-10-04T03:37:21;10.05;;;2.60;;
32523;SDS011;18965;52.242;20.886;2022-10-04T03:39:48;6.57;;;2.28;;
32523;SDS011;18965;52.242;20.886;2022-10-04T03:42:21;12.55;;;3.08;;
32523;SDS011;18965;52.242;20.886;2022-10-04T03:44:56;7.68;;;2.35;;
32523;SDS011;18965;52.242;20.886;2022-10-04T03:47:31;7.07;;;2.38;;
32523;SDS011;18965;52.242;20.886;2022-10-04T03:50:06;12.65;;;2.88;;
32523;SDS011;18965;52.242;20.886;2022-10-04T03:52:45;9.82;;;2.72;;
32523;SDS011;18965;52.242;20.886;2022-10-04T03:55:15;9.25;;;2.85;;
32523;SDS011;18965;52.242;20.886;2022-10-04T03:57:43;16.85;;;3.67;;
32523;SDS011;18965;52.242;20.886;2022-10-04T04:00:13;4.47;;;2.28;;
32523;SDS011;18965;52.242;20.886;2022-10-04T04:05:30;10.20;;;2.47;;
32523;SDS011;18965;52.242;20.886;2022-10-04T04:08:16;8.85;;;2.55;;
32523;SDS011;18965;52.242;20.886;2022-10-04T04:10:52;8.75;;;2.80;;
32523;SDS011;18965;52.242;20.886;2022-10-04T04:13:23;12.95;;;3.35;;
32523;SDS011;18965;52.242;20.886;2022-10-04T04:16:08;6.22;;;2.50;;
32523;SDS011;18965;52.242;20.886;2022-10-04T04:18:36;9.75;;;2.80;;
32523;SDS011;18965;52.242;20.886;2022-10-04T04:21:06;8.98;;;2.95;;
32523;SDS011;18965;52.242;20.886;2022-10-04T04:23:42;7.53;;;3.00;;
32523;SDS011;18965;52.242;20.886;2022-10-04T04:26:15;5.75;;;2.50;;
32523;SDS011;18965;52.242;20.886;2022-10-04T04:29:07;5.70;;;2.20;;
32523;SDS011;18965;52.242;20.886;2022-10-04T04:31:51;13.13;;;2.88;;
32523;SDS011;18965;52.242;20.886;2022-10-04T04:34:29;11.27;;;2.80;;
32523;SDS011;18965;52.242;20.886;2022-10-04T04:37:08;6.15;;;2.40;;
32523;SDS011;18965;52.242;20.886;2022-10-04T04:39:35;6.38;;;2.53;;
32523;SDS011;18965;52.242;20.886;2022-10-04T04:44:39;5.53;;;2.28;;
32523;SDS011;18965;52.242;20.886;2022-10-04T04:52:42;10.38;;;2.70;;
32523;SDS011;18965;52.242;20.886;2022-10-04T04:55:19;6.57;;;2.60;;
32523;SDS011;18965;52.242;20.886;2022-10-04T04:57:53;7.28;;;2.45;;
32523;SDS011;18965;52.242;20.886;2022-10-04T05:00:22;86.40;;;10.82;;
32523;SDS011;18965;52.242;20.886;2022-10-04T05:02:54;6.82;;;2.28;;
32523;SDS011;18965;52.242;20.886;2022-10-04T05:05:31;10.63;;;2.60;;
32523;SDS011;18965;52.242;20.886;2022-10-04T05:08:14;5.28;;;1.98;;
32523;SDS011;18965;52.242;20.886;2022-10-04T05:10:47;9.75;;;2.50;;
32523;SDS011;18965;52.242;20.886;2022-10-04T05:13:20;24.52;;;4.03;;
32523;SDS011;18965;52.242;20.886;2022-10-04T05:15:47;13.98;;;3.10;;
32523;SDS011;18965;52.242;20.886;2022-10-04T05:18:26;9.43;;;2.58;;
32523;SDS011;18965;52.242;20.886;2022-10-04T05:20:58;15.90;;;3.05;;
32523;SDS011;18965;52.242;20.886;2022-10-04T05:23:48;10.80;;;2.80;;
32523;SDS011;18965;52.242;20.886;2022-10-04T05:26:15;12.95;;;2.92;;
32523;SDS011;18965;52.242;20.886;2022-10-04T05:28:54;15.65;;;2.83;;
32523;SDS011;18965;52.242;20.886;2022-10-04T05:31:27;16.95;;;3.03;;
32523;SDS011;18965;52.242;20.886;2022-10-04T05:34:24;14.27;;;3.10;;
32523;SDS011;18965;52.242;20.886;2022-10-04T05:42:17;17.45;;;2.75;;
32523;SDS011;18965;52.242;20.886;2022-10-04T05:44:54;9.70;;;2.17;;
32523;SDS011;18965;52.242;20.886;2022-10-04T05:47:24;15.25;;;2.90;;
32523;SDS011;18965;52.242;20.886;2022-10-04T05:49:56;15.73;;;2.70;;
32523;SDS011;18965;52.242;20.886;2022-10-04T05:52:26;23.75;;;3.95;;
32523;SDS011;18965;52.242;20.886;2022-10-04T06:06:46;24.30;;;3.28;;
32523;SDS011;18965;52.242;20.886;2022-10-04T06:12:06;26.40;;;3.80;;
32523;SDS011;18965;52.242;20.886;2022-10-04T06:23:01;16.20;;;2.95;;
32523;SDS011;18965;52.242;20.886;2022-10-04T06:25:37;8.13;;;2.28;;
32523;SDS011;18965;52.242;20.886;2022-10-04T06:45:06;13.77;;;3.05;;
32523;SDS011;18965;52.242;20.886;2022-10-04T06:48:13;6.40;;;2.50;;
32523;SDS011;18965;52.242;20.886;2022-10-04T06:53:58;25.85;;;4.25;;
32523;SDS011;18965;52.242;20.886;2022-10-04T07:00:12;27.38;;;4.30;;
32523;SDS011;18965;52.242;20.886;2022-10-04T07:02:39;11.85;;;2.95;;
32523;SDS011;18965;52.242;20.886;2022-10-04T07:05:29;13.98;;;3.28;;
32523;SDS011;18965;52.242;20.886;2022-10-04T07:08:06;7.95;;;2.15;;
32523;SDS011;18965;52.242;20.886;2022-10-04T07:10:55;19.05;;;3.13;;
32523;SDS011;18965;52.242;20.886;2022-10-04T07:21:40;16.55;;;3.22;;
32523;SDS011;18965;52.242;20.886;2022-10-04T07:24:20;7.78;;;2.17;;
32523;SDS011;18965;52.242;20.886;2022-10-04T07:26:51;4.93;;;1.88;;
32523;SDS011;18965;52.242;20.886;2022-10-04T07:29:26;5.47;;;2.08;;
32523;SDS011;18965;52.242;20.886;2022-10-04T07:32:07;8.68;;;2.53;;
32523;SDS011;18965;52.242;20.886;2022-10-04T07:34:43;8.90;;;2.38;;
32523;SDS011;18965;52.242;20.886;2022-10-04T07:37:24;10.45;;;2.65;;
32523;SDS011;18965;52.242;20.886;2022-10-04T07:42:26;14.70;;;3.03;;
32523;SDS011;18965;52.242;20.886;2022-10-04T07:45:39;8.95;;;2.50;;
32523;SDS011;18965;52.242;20.886;2022-10-04T07:47:47;6.95;;;1.90;;
32523;SDS011;18965;52.242;20.886;2022-10-04T07:58:26;25.02;;;4.03;;
32523;SDS011;18965;52.242;20.886;2022-10-04T08:01:32;11.80;;;2.70;;
32523;SDS011;18965;52.242;20.886;2022-10-04T08:04:01;9.98;;;2.65;;
32523;SDS011;18965;52.242;20.886;2022-10-04T08:09:20;20.15;;;3.53;;
32523;SDS011;18965;52.242;20.886;2022-10-04T08:11:59;13.85;;;3.03;;
32523;SDS011;18965;52.242;20.886;2022-10-04T08:28:29;9.88;;;2.30;;
32523;SDS011;18965;52.242;20.886;2022-10-04T08:31:51;8.88;;;2.08;;
32523;SDS011;18965;52.242;20.886;2022-10-04T08:37:34;9.35;;;2.47;;
32523;SDS011;18965;52.242;20.886;2022-10-04T08:45:59;5.55;;;1.67;;
32523;SDS011;18965;52.242;20.886;2022-10-04T08:48:59;4.90;;;1.90;;
32523;SDS011;18965;52.242;20.886;2022-10-04T09:00:11;17.15;;;3.22;;
32523;SDS011;18965;52.242;20.886;2022-10-04T09:02:59;9.50;;;2.08;;
32523;SDS011;18965;52.242;20.886;2022-10-04T09:11:25;6.93;;;1.77;;
32523;SDS011;18965;52.242;20.886;2022-10-04T09:22:24;5.50;;;1.20;;
32523;SDS011;18965;52.242;20.886;2022-10-04T09:31:00;8.55;;;1.85;;
32523;SDS011;18965;52.242;20.886;2022-10-04T09:56:29;12.18;;;2.47;;
32523;SDS011;18965;52.242;20.886;2022-10-04T09:59:20;18.52;;;3.58;;
32523;SDS011;18965;52.242;20.886;2022-10-04T10:30:11;9.07;;;2.13;;
32523;SDS011;18965;52.242;20.886;2022-10-04T10:33:00;6.38;;;1.90;;
32523;SDS011;18965;52.242;20.886;2022-10-04T10:47:11;7.97;;;2.05;;
32523;SDS011;18965;52.242;20.886;2022-10-04T10:50:00;6.90;;;1.75;;
32523;SDS011;18965;52.242;20.886;2022-10-04T11:04:27;6.57;;;1.85;;
32523;SDS011;18965;52.242;20.886;2022-10-04T11:13:00;11.60;;;2.13;;
32523;SDS011;18965;52.242;20.886;2022-10-04T11:24:19;3.95;;;1.50;;
32523;SDS011;18965;52.242;20.886;2022-10-04T11:27:33;15.88;;;2.85;;
32523;SDS011;18965;52.242;20.886;2022-10-04T11:54:55;13.48;;;2.63;;
32523;SDS011;18965;52.242;20.886;2022-10-04T11:57:30;8.50;;;2.35;;
32523;SDS011;18965;52.242;20.886;2022-10-04T12:00:12;14.13;;;2.85;;
32523;SDS011;18965;52.242;20.886;2022-10-04T12:08:44;10.07;;;2.30;;
32523;SDS011;18965;52.242;20.886;2022-10-04T12:31:58;12.30;;;2.92;;
32523;SDS011;18965;52.242;20.886;2022-10-04T12:40:41;10.90;;;2.63;;
32523;SDS011;18965;52.242;20.886;2022-10-04T12:46:15;11.27;;;2.28;;
32523;SDS011;18965;52.242;20.886;2022-10-04T12:51:21;11.07;;;2.50;;
32523;SDS011;18965;52.242;20.886;2022-10-04T12:57:29;13.77;;;2.67;;
32523;SDS011;18965;52.242;20.886;2022-10-04T13:00:12;10.52;;;2.58;;
32523;SDS011;18965;52.242;20.886;2022-10-04T13:13:59;12.30;;;2.63;;
32523;SDS011;18965;52.242;20.886;2022-10-04T13:19:38;6.10;;;1.98;;
32523;SDS011;18965;52.242;20.886;2022-10-04T13:28:33;6.60;;;1.80;;
32523;SDS011;18965;52.242;20.886;2022-10-04T13:39:45;19.08;;;3.53;;
32523;SDS011;18965;52.242;20.886;2022-10-04T13:50:49;15.65;;;3.15;;
32523;SDS011;18965;52.242;20.886;2022-10-04T13:53:31;7.13;;;2.00;;
32523;SDS011;18965;52.242;20.886;2022-10-04T13:56:43;12.20;;;2.63;;
32523;SDS011;18965;52.242;20.886;2022-10-04T14:01:58;17.80;;;3.50;;
32523;SDS011;18965;52.242;20.886;2022-10-04T14:13:17;12.82;;;2.95;;
32523;SDS011;18965;52.242;20.886;2022-10-04T14:40:52;9.38;;;2.72;;
32523;SDS011;18965;52.242;20.886;2022-10-04T14:51:24;10.50;;;2.75;;
32523;SDS011;18965;52.242;20.886;2022-10-04T14:56:50;15.50;;;3.22;;
32523;SDS011;18965;52.242;20.886;2022-10-04T15:07:37;9.35;;;4.18;;
32523;SDS011;18965;52.242;20.886;2022-10-04T15:23:58;19.90;;;4.00;;
32523;SDS011;18965;52.242;20.886;2022-10-04T15:29:26;10.98;;;3.13;;
32523;SDS011;18965;52.242;20.886;2022-10-04T15:34:45;17.45;;;3.47;;
32523;SDS011;18965;52.242;20.886;2022-10-04T15:37:39;9.85;;;2.80;;
32523;SDS011;18965;52.242;20.886;2022-10-04T15:40:13;15.43;;;4.43;;
32523;SDS011;18965;52.242;20.886;2022-10-04T15:42:53;19.92;;;6.47;;
32523;SDS011;18965;52.242;20.886;2022-10-04T15:48:45;13.13;;;3.78;;
32523;SDS011;18965;52.242;20.886;2022-10-04T15:56:51;14.70;;;3.85;;
32523;SDS011;18965;52.242;20.886;2022-10-04T16:24:42;49.30;;;8.07;;
32523;SDS011;18965;52.242;20.886;2022-10-04T16:27:55;8.65;;;2.80;;
32523;SDS011;18965;52.242;20.886;2022-10-04T16:30:05;9.65;;;2.85;;
32523;SDS011;18965;52.242;20.886;2022-10-04T16:32:46;21.60;;;4.55;;
32523;SDS011;18965;52.242;20.886;2022-10-04T16:35:38;18.05;;;4.00;;
32523;SDS011;18965;52.242;20.886;2022-10-04T16:38:35;9.63;;;3.13;;
32523;SDS011;18965;52.242;20.886;2022-10-04T16:41:40;12.98;;;3.45;;
32523;SDS011;18965;52.242;20.886;2022-10-04T16:44:30;12.73;;;4.38;;
32523;SDS011;18965;52.242;20.886;2022-10-04T16:47:36;18.85;;;4.78;;
32523;SDS011;18965;52.242;20.886;2022-10-04T16:56:11;17.60;;;4.70;;
32523;SDS011;18965;52.242;20.886;2022-10-04T17:09:28;39.58;;;7.28;;
32523;SDS011;18965;52.242;20.886;2022-10-04T17:12:09;10.43;;;3.85;;
32523;SDS011;18965;52.242;20.886;2022-10-04T17:25:58;14.00;;;5.05;;
32523;SDS011;18965;52.242;20.886;2022-10-04T17:36:57;14.30;;;5.72;;
32523;SDS011;18965;52.242;20.886;2022-10-04T17:44:58;22.60;;;6.38;;
32523;SDS011;18965;52.242;20.886;2022-10-04T17:50:28;16.52;;;5.13;;
32523;SDS011;18965;52.242;20.886;2022-10-04T17:53:19;16.20;;;5.97;;
32523;SDS011;18965;52.242;20.886;2022-10-04T17:56:10;19.98;;;6.35;;
32523;SDS011;18965;52.242;20.886;2022-10-04T17:58:50;12.32;;;5.20;;
32523;SDS011;18965;52.242;20.886;2022-10-04T18:07:04;15.65;;;6.07;;
32523;SDS011;18965;52.242;20.886;2022-10-04T18:09:35;15.95;;;5.70;;
32523;SDS011;18965;52.242;20.886;2022-10-04T18:12:10;21.60;;;6.93;;
32523;SDS011;18965;52.242;20.886;2022-10-04T18:17:37;19.38;;;6.28;;
32523;SDS011;18965;52.242;20.886;2022-10-04T18:22:47;15.63;;;6.47;;
32523;SDS011;18965;52.242;20.886;2022-10-04T18:27:48;32.15;;;7.97;;
32523;SDS011;18965;52.242;20.886;2022-10-04T18:30:31;28.77;;;8.20;;
32523;SDS011;18965;52.242;20.886;2022-10-04T18:32:58;83.63;;;53.83;;
32523;SDS011;18965;52.242;20.886;2022-10-04T18:40:33;38.17;;;10.68;;
32523;SDS011;18965;52.242;20.886;2022-10-04T18:46:17;31.23;;;9.90;;
32523;SDS011;18965;52.242;20.886;2022-10-04T18:48:52;18.88;;;8.13;;
32523;SDS011;18965;52.242;20.886;2022-10-04T18:51:25;23.17;;;8.65;;
32523;SDS011;18965;52.242;20.886;2022-10-04T18:54:03;30.90;;;9.35;;
32523;SDS011;18965;52.242;20.886;2022-10-04T18:56:45;19.83;;;7.63;;
32523;SDS011;18965;52.242;20.886;2022-10-04T18:59:23;15.77;;;7.88;;
32523;SDS011;18965;52.242;20.886;2022-10-04T19:02:20;22.45;;;9.90;;
32523;SDS011;18965;52.242;20.886;2022-10-04T19:26:31;24.98;;;9.23;;
32523;SDS011;18965;52.242;20.886;2022-10-04T19:29:03;36.20;;;10.32;;
32523;SDS011;18965;52.242;20.886;2022-10-04T19:34:13;24.42;;;10.02;;
32523;SDS011;18965;52.242;20.886;2022-10-04T19:36:58;21.80;;;9.32;;
32523;SDS011;18965;52.242;20.886;2022-10-04T19:42:11;22.63;;;9.80;;
32523;SDS011;18965;52.242;20.886;2022-10-04T19:44:48;28.50;;;13.32;;
32523;SDS011;18965;52.242;20.886;2022-10-04T19:47:56;17.95;;;8.45;;
32523;SDS011;18965;52.242;20.886;2022-10-04T19:53:41;22.60;;;8.70;;
32523;SDS011;18965;52.242;20.886;2022-10-04T19:56:15;32.25;;;10.23;;
32523;SDS011;18965;52.242;20.886;2022-10-04T19:59:04;23.13;;;9.50;;
32523;SDS011;18965;52.242;20.886;2022-10-04T20:01:34;31.85;;;10.32;;
32523;SDS011;18965;52.242;20.886;2022-10-04T20:04:15;28.23;;;11.18;;
32523;SDS011;18965;52.242;20.886;2022-10-04T20:09:51;22.25;;;9.30;;
32523;SDS011;18965;52.242;20.886;2022-10-04T20:12:36;19.65;;;9.00;;
32523;SDS011;18965;52.242;20.886;2022-10-04T20:17:43;22.58;;;9.77;;
32523;SDS011;18965;52.242;20.886;2022-10-04T20:20:15;19.65;;;9.23;;
32523;SDS011;18965;52.242;20.886;2022-10-04T20:23:02;26.85;;;9.98;;
32523;SDS011;18965;52.242;20.886;2022-10-04T20:28:35;22.17;;;9.70;;
32523;SDS011;18965;52.242;20.886;2022-10-04T20:31:50;32.38;;;10.20;;
32523;SDS011;18965;52.242;20.886;2022-10-04T20:33:54;27.15;;;10.75;;
32523;SDS011;18965;52.242;20.886;2022-10-04T20:38:59;25.10;;;9.75;;
32523;SDS011;18965;52.242;20.886;2022-10-04T20:44:13;29.63;;;10.05;;
32523;SDS011;18965;52.242;20.886;2022-10-04T20:50:00;27.25;;;9.50;;
32523;SDS011;18965;52.242;20.886;2022-10-04T20:52:29;27.88;;;9.75;;
32523;SDS011;18965;52.242;20.886;2022-10-04T20:54:56;29.30;;;10.52;;
32523;SDS011;18965;52.242;20.886;2022-10-04T20:57:25;40.97;;;11.50;;
32523;SDS011;18965;52.242;20.886;2022-10-04T20:59:54;19.13;;;8.98;;
32523;SDS011;18965;52.242;20.886;2022-10-04T21:02:22;26.55;;;10.18;;
32523;SDS011;18965;52.242;20.886;2022-10-04T21:04:51;23.85;;;9.57;;
32523;SDS011;18965;52.242;20.886;2022-10-04T21:09:43;32.05;;;10.30;;
32523;SDS011;18965;52.242;20.886;2022-10-04T21:15:39;25.42;;;10.40;;
32523;SDS011;18965;52.242;20.886;2022-10-04T21:23:29;20.05;;;9.75;;
32523;SDS011;18965;52.242;20.886;2022-10-04T21:28:42;26.00;;;10.00;;
32523;SDS011;18965;52.242;20.886;2022-10-04T21:31:08;31.05;;;10.32;;
32523;SDS011;18965;52.242;20.886;2022-10-04T21:33:34;29.20;;;10.27;;
32523;SDS011;18965;52.242;20.886;2022-10-04T21:36:00;24.75;;;9.95;;
32523;SDS011;18965;52.242;20.886;2022-10-04T21:38:27;17.92;;;9.57;;
32523;SDS011;18965;52.242;20.886;2022-10-04T21:40:53;47.33;;;11.68;;
32523;SDS011;18965;52.242;20.886;2022-10-04T21:43:20;25.27;;;10.00;;
32523;SDS011;18965;52.242;20.886;2022-10-04T21:45:47;26.13;;;9.75;;
32523;SDS011;18965;52.242;20.886;2022-10-04T21:48:13;30.33;;;9.80;;
32523;SDS011;18965;52.242;20.886;2022-10-04T21:50:38;29.85;;;10.20;;
32523;SDS011;18965;52.242;20.886;2022-10-04T21:53:05;20.52;;;8.75;;
32523;SDS011;18965;52.242;20.886;2022-10-04T21:55:30;25.80;;;10.20;;
32523;SDS011;18965;52.242;20.886;2022-10-04T21:57:56;24.77;;;9.90;;
32523;SDS011;18965;52.242;20.886;2022-10-04T22:00:22;19.40;;;9.52;;
32523;SDS011;18965;52.242;20.886;2022-10-04T22:02:48;16.83;;;8.93;;
32523;SDS011;18965;52.242;20.886;2022-10-04T22:05:14;35.17;;;10.88;;
32523;SDS011;18965;52.242;20.886;2022-10-04T22:07:40;24.35;;;9.45;;
32523;SDS011;18965;52.242;20.886;2022-10-04T22:10:07;27.23;;;9.73;;
32523;SDS011;18965;52.242;20.886;2022-10-04T22:12:32;17.33;;;8.52;;
32523;SDS011;18965;52.242;20.886;2022-10-04T22:14:58;24.85;;;9.55;;
32523;SDS011;18965;52.242;20.886;2022-10-04T22:17:24;22.55;;;9.38;;
32523;SDS011;18965;52.242;20.886;2022-10-04T22:19:50;32.20;;;10.10;;
32523;SDS011;18965;52.242;20.886;2022-10-04T22:22:17;18.92;;;8.82;;
32523;SDS011;18965;52.242;20.886;2022-10-04T22:24:43;22.08;;;9.65;;
32523;SDS011;18965;52.242;20.886;2022-10-04T22:27:15;20.77;;;8.90;;
32523;SDS011;18965;52.242;20.886;2022-10-04T22:29:43;28.50;;;9.82;;
32523;SDS011;18965;52.242;20.886;2022-10-04T22:32:10;24.75;;;9.65;;
32523;SDS011;18965;52.242;20.886;2022-10-04T22:34:39;31.55;;;10.30;;
32523;SDS011;18965;52.242;20.886;2022-10-04T22:37:07;32.58;;;10.45;;
32523;SDS011;18965;52.242;20.886;2022-10-04T22:39:37;30.63;;;10.45;;
32523;SDS011;18965;52.242;20.886;2022-10-04T22:42:03;21.75;;;10.27;;
32523;SDS011;18965;52.242;20.886;2022-10-04T22:44:35;21.10;;;10.20;;
32523;SDS011;18965;52.242;20.886;2022-10-04T22:47:03;20.15;;;9.82;;
32523;SDS011;18965;52.242;20.886;2022-10-04T22:49:31;30.92;;;11.00;;
32523;SDS011;18965;52.242;20.886;2022-10-04T22:52:01;29.95;;;10.93;;
32523;SDS011;18965;52.242;20.886;2022-10-04T22:54:31;32.45;;;10.93;;
32523;SDS011;18965;52.242;20.886;2022-10-04T22:56:58;26.30;;;9.55;;
32523;SDS011;18965;52.242;20.886;2022-10-04T22:59:34;22.23;;;8.77;;
32523;SDS011;18965;52.242;20.886;2022-10-04T23:04:31;19.77;;;8.82;;
32523;SDS011;18965;52.242;20.886;2022-10-04T23:07:00;22.88;;;8.93;;
32523;SDS011;18965;52.242;20.886;2022-10-04T23:09:26;20.05;;;8.15;;
32523;SDS011;18965;52.242;20.886;2022-10-04T23:11:52;17.27;;;8.35;;
32523;SDS011;18965;52.242;20.886;2022-10-04T23:14:20;25.38;;;9.00;;
32523;SDS011;18965;52.242;20.886;2022-10-04T23:16:47;33.25;;;9.93;;
32523;SDS011;18965;52.242;20.886;2022-10-04T23:19:15;22.00;;;8.27;;
32523;SDS011;18965;52.242;20.886;2022-10-04T23:21:45;24.45;;;8.65;;
32523;SDS011;18965;52.242;20.886;2022-10-04T23:24:17;20.25;;;8.77;;
32523;SDS011;18965;52.242;20.886;2022-10-04T23:26:46;19.75;;;8.23;;
32523;SDS011;18965;52.242;20.886;2022-10-04T23:29:15;17.45;;;8.15;;
32523;SDS011;18965;52.242;20.886;2022-10-04T23:31:51;25.65;;;9.00;;
32523;SDS011;18965;52.242;20.886;2022-10-04T23:34:26;22.20;;;8.50;;
32523;SDS011;18965;52.242;20.886;2022-10-04T23:36:57;56.83;;;12.05;;
32523;SDS011;18965;52.242;20.886;2022-10-04T23:39:30;40.60;;;10.57;;
32523;SDS011;18965;52.242;20.886;2022-10-04T23:41:59;27.92;;;9.38;;
32523;SDS011;18965;52.242;20.886;2022-10-04T23:44:32;22.95;;;9.05;;
32523;SDS011;18965;52.242;20.886;2022-10-04T23:47:00;19.50;;;8.07;;
32523;SDS011;18965;52.242;20.886;2022-10-04T23:49:26;29.75;;;8.52;;
32523;SDS011;18965;52.242;20.886;2022-10-04T23:51:56;26.70;;;7.97;;
32523;SDS011;18965;52.242;20.886;2022-10-04T23:54:24;17.98;;;7.63;;
32523;SDS011;18965;52.242;20.886;2022-10-04T23:56:50;15.32;;;7.18;;
32523;SDS011;18965;52.242;20.886;2022-10-04T23:59:17;21.52;;;7.68;;
